createdAt,value
2023-11-07T00:00:08.641Z,99528.37
2023-11-07T00:02:36.942Z,99526.94
2023-11-07T00:05:05.130Z,99530.75
2023-11-07T00:07:32.637Z,99538.63
2023-11-07T00:10:00.377Z,99537.78
2023-11-07T00:12:27.870Z,99538.06
2023-11-07T00:14:55.606Z,99531.16
2023-11-07T00:17:23.400Z,99537.72
2023-11-07T00:19:50.877Z,99541.78
2023-11-07T00:22:18.354Z,99534.63
2023-11-07T00:24:46.519Z,99540.34
2023-11-07T00:27:14.504Z,99533.25
2023-11-07T00:29:41.994Z,99538.97
2023-11-07T00:32:09.768Z,99546.56
2023-11-07T00:34:37.246Z,99555.00
2023-11-07T00:37:04.808Z,99543.25
2023-11-07T00:39:32.514Z,99549.19
2023-11-07T00:41:59.976Z,99553.00
2023-11-07T00:44:27.502Z,99546.94
2023-11-07T00:46:55.370Z,99543.66
2023-11-07T00:49:22.909Z,99540.09
2023-11-07T00:51:50.419Z,99537.59
2023-11-07T00:54:18.234Z,99546.84
2023-11-07T00:56:45.798Z,99543.56
2023-11-07T00:59:13.556Z,99546.50
2023-11-07T01:01:41.931Z,99551.97
2023-11-07T01:04:09.624Z,99537.75
2023-11-07T01:06:37.280Z,99536.09
2023-11-07T01:09:05.533Z,99534.44
2023-11-07T01:11:33.251Z,99540.97
2023-11-07T01:14:00.761Z,99529.47
2023-11-07T01:16:28.522Z,99531.38
2023-11-07T01:18:56.714Z,99531.59
2023-11-07T01:21:24.896Z,99538.13
2023-11-07T01:23:52.693Z,99552.88
2023-11-07T01:26:20.753Z,99550.38
2023-11-07T01:28:48.202Z,99553.34
2023-11-07T01:31:15.980Z,99547.06
2023-11-07T01:33:43.587Z,99541.84
2023-11-07T01:36:11.811Z,99545.66
2023-11-07T01:38:39.595Z,99544.84
2023-11-07T01:41:07.142Z,99545.88
2023-11-07T01:43:34.606Z,99546.09
2023-11-07T01:46:04.158Z,99539.25
2023-11-07T01:48:31.960Z,99547.44
2023-11-07T01:50:59.795Z,99550.16
2023-11-07T01:53:27.537Z,99549.81
2023-11-07T01:55:55.240Z,99556.34
2023-11-07T01:58:22.953Z,99553.84
2023-11-07T02:00:54.856Z,99549.47
2023-11-07T02:03:26.081Z,99553.28
2023-11-07T02:05:53.749Z,99557.09
2023-11-07T02:08:26.175Z,99558.94
2023-11-07T02:10:53.917Z,99563.84
2023-11-07T02:13:21.396Z,99563.84
2023-11-07T02:15:48.903Z,99555.09
2023-11-07T02:18:16.912Z,99561.59
2023-11-07T02:20:46.599Z,99557.22
2023-11-07T02:23:30.383Z,99556.63
2023-11-07T02:25:58.225Z,99560.75
2023-11-07T02:28:25.701Z,99559.34
2023-11-07T02:30:53.913Z,99556.84
2023-11-07T02:33:22.748Z,99557.94
2023-11-07T02:35:50.349Z,99559.00
2023-11-07T02:38:20.672Z,99554.62
2023-11-07T02:40:50.324Z,99560.09
2023-11-07T02:43:17.875Z,99556.75
2023-11-07T02:45:45.444Z,99566.84
2023-11-07T02:48:13.354Z,99566.00
2023-11-07T02:50:41.515Z,99566.25
2023-11-07T02:53:09.052Z,99571.94
2023-11-07T02:55:36.861Z,99565.91
2023-11-07T02:58:04.410Z,99560.44
2023-11-07T03:00:33.590Z,99565.34
2023-11-07T03:03:01.472Z,99569.09
2023-11-07T03:05:29.043Z,99574.56
2023-11-07T03:07:58.159Z,99566.63
2023-11-07T03:10:27.005Z,99566.87
2023-11-07T03:12:54.502Z,99572.34
2023-11-07T03:15:21.955Z,99572.56
2023-11-07T03:17:49.826Z,99578.00
2023-11-07T03:20:17.947Z,99584.78
2023-11-07T03:22:45.436Z,99583.97
2023-11-07T03:25:13.168Z,99578.50
2023-11-07T03:27:40.729Z,99581.72
2023-11-07T03:30:08.948Z,99590.72
2023-11-07T03:32:37.179Z,99583.63
2023-11-07T03:35:05.813Z,99588.47
2023-11-07T03:37:33.252Z,99588.47
2023-11-07T03:40:01.255Z,99589.53
2023-11-07T03:42:29.323Z,99590.34
2023-11-07T03:44:56.766Z,99598.78
2023-11-07T03:47:24.507Z,99587.06
2023-11-07T03:49:53.020Z,99593.59
2023-11-07T03:52:20.499Z,99589.19
2023-11-07T03:54:49.158Z,99588.34
2023-11-07T03:57:16.664Z,99589.44
2023-11-07T03:59:47.032Z,99589.69
2023-11-07T04:02:14.836Z,99596.19
2023-11-07T04:04:42.601Z,99599.75
2023-11-07T04:07:10.163Z,99601.88
2023-11-07T04:09:38.146Z,99598.56
2023-11-07T04:12:06.378Z,99603.19
2023-11-07T04:14:34.556Z,99604.28
2023-11-07T04:17:05.793Z,99594.41
2023-11-07T04:19:34.805Z,99599.03
2023-11-07T04:22:05.252Z,99602.00
2023-11-07T04:24:33.064Z,99603.91
2023-11-07T04:27:00.601Z,99601.19
2023-11-07T04:29:28.110Z,99605.00
2023-11-07T04:31:55.859Z,99612.31
2023-11-07T04:34:23.344Z,99614.22
2023-11-07T04:36:54.716Z,99617.19
2023-11-07T04:39:22.482Z,99610.03
2023-11-07T04:41:50.056Z,99610.25
2023-11-07T04:44:17.542Z,99605.06
2023-11-07T04:46:46.191Z,99609.69
2023-11-07T04:49:15.245Z,99609.69
2023-11-07T04:51:42.957Z,99617.28
2023-11-07T04:54:10.756Z,99611.81
2023-11-07T04:56:38.597Z,99603.88
2023-11-07T04:59:06.143Z,99615.84
2023-11-07T05:01:33.838Z,99617.75
2023-11-07T05:04:01.668Z,99625.91
2023-11-07T05:06:29.415Z,99619.66
2023-11-07T05:08:57.237Z,99616.09
2023-11-07T05:11:24.726Z,99610.84
2023-11-07T05:13:52.170Z,99614.41
2023-11-07T05:16:20.537Z,99620.09
2023-11-07T05:18:49.117Z,99617.63
2023-11-07T05:21:17.251Z,99614.91
2023-11-07T05:23:45.037Z,99621.44
2023-11-07T05:26:12.780Z,99609.91
2023-11-07T05:28:40.238Z,99621.06
2023-11-07T05:31:07.996Z,99621.06
2023-11-07T05:33:38.439Z,99622.97
2023-11-07T05:36:06.432Z,99626.50
2023-11-07T05:38:35.280Z,99622.97
2023-11-07T05:41:03.238Z,99612.28
2023-11-07T05:43:30.736Z,99624.03
2023-11-07T05:45:58.483Z,99628.88
2023-11-07T05:48:26.294Z,99634.31
2023-11-07T05:50:53.960Z,99638.94
2023-11-07T05:53:21.711Z,99639.78
2023-11-07T05:55:49.289Z,99648.19
2023-11-07T05:58:16.768Z,99647.38
2023-11-07T06:00:45.335Z,99659.31
2023-11-07T06:03:15.064Z,99660.38
2023-11-07T06:05:46.632Z,99659.56
2023-11-07T06:08:14.784Z,99666.66
2023-11-07T06:10:42.245Z,99665.25
2023-11-07T06:13:09.826Z,99677.22
2023-11-07T06:15:39.086Z,99679.09
2023-11-07T06:18:07.778Z,99676.38
2023-11-07T06:20:35.345Z,99681.81
2023-11-07T06:23:03.159Z,99682.06
2023-11-07T06:25:30.668Z,99685.84
2023-11-07T06:27:59.001Z,99689.66
2023-11-07T06:30:31.133Z,99689.66
2023-11-07T06:32:59.792Z,99678.75
2023-11-07T06:35:27.767Z,99690.69
2023-11-07T06:37:55.351Z,99691.56
2023-11-07T06:40:29.928Z,99686.09
2023-11-07T06:43:01.804Z,99684.22
2023-11-07T06:45:29.295Z,99689.03
2023-11-07T06:48:01.116Z,99690.94
2023-11-07T06:50:28.928Z,99693.91
2023-11-07T06:52:56.516Z,99687.63
2023-11-07T06:55:27.376Z,99683.22
2023-11-07T06:57:56.678Z,99681.56
2023-11-07T07:00:28.090Z,99688.91
2023-11-07T07:02:57.554Z,99688.91
2023-11-07T07:05:26.660Z,99695.44
2023-11-07T07:07:55.696Z,99701.72
2023-11-07T07:10:23.839Z,99704.69
2023-11-07T07:12:52.313Z,99699.22
2023-11-07T07:15:19.926Z,99708.44
2023-11-07T07:17:48.426Z,99710.34
2023-11-07T07:20:16.063Z,99724.59
2023-11-07T07:22:44.521Z,99721.03
2023-11-07T07:25:17.463Z,99721.47
2023-11-07T07:27:49.170Z,99717.69
2023-11-07T07:30:22.483Z,99714.97
2023-11-07T07:32:52.917Z,99719.59
2023-11-07T07:35:24.380Z,99717.94
2023-11-07T07:37:53.199Z,99716.84
2023-11-07T07:40:30.504Z,99715.19
2023-11-07T07:43:10.520Z,99715.19
2023-11-07T07:45:40.892Z,99716.03
2023-11-07T07:48:08.760Z,99717.09
2023-11-07T07:50:36.397Z,99717.09
2023-11-07T07:53:07.723Z,99718.16
2023-11-07T07:55:38.352Z,99725.50
2023-11-07T07:58:08.009Z,99725.50
2023-11-07T08:00:38.989Z,99721.94
2023-11-07T08:03:11.307Z,99723.00
2023-11-07T08:05:41.719Z,99725.50
2023-11-07T08:08:10.809Z,99734.72
2023-11-07T08:10:39.330Z,99725.72
2023-11-07T08:13:08.670Z,99724.91
2023-11-07T08:15:37.750Z,99724.91
2023-11-07T08:18:08.439Z,99730.34
2023-11-07T08:20:39.482Z,99724.06
2023-11-07T08:23:07.253Z,99727.88
2023-11-07T08:25:35.626Z,99729.19
2023-11-07T08:28:09.239Z,99734.97
2023-11-07T08:30:40.489Z,99732.47
2023-11-07T08:33:09.038Z,99735.41
2023-11-07T08:35:38.097Z,99741.94
2023-11-07T08:38:05.787Z,99734.00
2023-11-07T08:40:36.524Z,99730.44
2023-11-07T08:43:04.777Z,99736.94
2023-11-07T08:45:34.925Z,99741.56
2023-11-07T08:48:04.488Z,99750.81
2023-11-07T08:50:33.948Z,99749.97
2023-11-07T08:53:06.556Z,99754.34
2023-11-07T08:55:34.888Z,99742.87
2023-11-07T08:58:04.694Z,99743.69
2023-11-07T09:00:33.832Z,99740.16
2023-11-07T09:03:01.800Z,99742.87
2023-11-07T09:05:30.073Z,99749.72
2023-11-07T09:07:57.821Z,99741.22
2023-11-07T09:10:26.559Z,99735.97
2023-11-07T09:12:54.028Z,99743.06
2023-11-07T09:15:22.053Z,99740.59
2023-11-07T09:17:50.295Z,99738.94
2023-11-07T09:20:18.170Z,99734.31
2023-11-07T09:22:45.745Z,99735.38
2023-11-07T09:25:13.682Z,99725.56
2023-11-07T09:27:41.342Z,99728.28
2023-11-07T09:30:13.322Z,99733.72
2023-11-07T09:32:43.429Z,99735.00
2023-11-07T09:35:11.646Z,99734.75
2023-11-07T09:37:42.402Z,99735.59
2023-11-07T09:40:23.408Z,99731.22
2023-11-07T09:42:53.282Z,99727.66
2023-11-07T09:45:21.313Z,99728.50
2023-11-07T09:47:50.406Z,99731.22
2023-11-07T09:50:20.827Z,99726.84
2023-11-07T09:52:49.742Z,99732.88
2023-11-07T09:55:17.770Z,99738.31
2023-11-07T09:58:01.499Z,99737.28
2023-11-07T10:00:39.139Z,99729.94
2023-11-07T10:03:07.736Z,99734.56
2023-11-07T10:05:38.237Z,99742.72
2023-11-07T10:08:06.123Z,99737.28
2023-11-07T10:10:35.503Z,99734.56
2023-11-07T10:13:12.907Z,99737.28
2023-11-07T10:15:40.989Z,99733.25
2023-11-07T10:18:13.161Z,99733.94
2023-11-07T10:20:51.876Z,99731.69
2023-11-07T10:23:19.793Z,99729.97
2023-11-07T10:25:50.874Z,99724.38
2023-11-07T10:28:21.284Z,99721.91
2023-11-07T10:30:49.801Z,99724.63
2023-11-07T10:33:29.182Z,99712.91
2023-11-07T10:36:01.844Z,99703.66
2023-11-07T10:38:32.116Z,99712.66
2023-11-07T10:41:00.249Z,99708.03
2023-11-07T10:43:56.160Z,99705.31
2023-11-07T10:46:25.020Z,99708.03
2023-11-07T10:48:53.332Z,99718.09
2023-11-07T10:51:25.602Z,99712.66
2023-11-07T10:53:53.385Z,99719.75
2023-11-07T10:56:21.456Z,99720.59
2023-11-07T10:59:00.132Z,99706.97
2023-11-07T11:01:33.682Z,99712.66
2023-11-07T11:04:01.910Z,99712.06
2023-11-07T11:06:31.077Z,99715.62
2023-11-07T11:08:58.852Z,99719.19
2023-11-07T11:11:28.900Z,99716.47
2023-11-07T11:13:56.964Z,99720.84
2023-11-07T11:16:24.391Z,99722.50
2023-11-07T11:18:58.279Z,99718.94
2023-11-07T11:21:33.034Z,99708.88
2023-11-07T11:24:19.359Z,99712.44
2023-11-07T11:26:50.385Z,99706.53
2023-11-07T11:29:27.847Z,99700.50
2023-11-07T11:31:55.895Z,99695.87
2023-11-07T11:34:27.019Z,99696.69
2023-11-07T11:37:01.080Z,99697.78
2023-11-07T11:39:31.844Z,99705.94
2023-11-07T11:42:01.779Z,99704.03
2023-11-07T11:44:30.630Z,99693.97
2023-11-07T11:46:58.244Z,99690.19
2023-11-07T11:49:26.055Z,99698.34
2023-11-07T11:51:54.469Z,99698.34
2023-11-07T11:54:28.126Z,99690.19
2023-11-07T11:57:00.150Z,99686.63
2023-11-07T11:59:31.440Z,99682.00
2023-11-07T12:02:00.795Z,99680.94
2023-11-07T12:04:30.160Z,99686.41
2023-11-07T12:07:16.393Z,99696.47
2023-11-07T12:09:46.091Z,99683.50
2023-11-07T12:12:15.987Z,99676.56
2023-11-07T12:15:01.378Z,99680.94
2023-11-07T12:17:34.426Z,99682.41
2023-11-07T12:20:12.959Z,99673.63
2023-11-07T12:22:43.117Z,99676.34
2023-11-07T12:25:15.430Z,99671.94
2023-11-07T12:27:43.130Z,99667.31
2023-11-07T12:30:15.817Z,99672.78
2023-11-07T12:32:45.052Z,99661.88
2023-11-07T12:35:19.457Z,99660.88
2023-11-07T12:37:47.144Z,99660.88
2023-11-07T12:40:15.001Z,99658.16
2023-11-07T12:42:44.504Z,99655.44
2023-11-07T12:45:12.027Z,99646.41
2023-11-07T12:47:40.926Z,99653.53
2023-11-07T12:50:10.968Z,99644.53
2023-11-07T12:52:43.658Z,99640.94
2023-11-07T12:55:18.733Z,99648.91
2023-11-07T12:57:50.720Z,99642.63
2023-11-07T13:00:19.453Z,99633.63
2023-11-07T13:02:46.985Z,99641.81
2023-11-07T13:05:17.660Z,99632.56
2023-11-07T13:07:45.449Z,99630.06
2023-11-07T13:10:16.868Z,99630.91
2023-11-07T13:12:45.612Z,99634.47
2023-11-07T13:15:14.837Z,99621.66
2023-11-07T13:17:42.575Z,99618.13
2023-11-07T13:20:12.259Z,99616.22
2023-11-07T13:22:41.628Z,99623.56
2023-11-07T13:25:10.675Z,99625.22
2023-11-07T13:27:39.438Z,99627.13
2023-11-07T13:30:10.196Z,99630.91
2023-11-07T13:32:38.028Z,99635.50
2023-11-07T13:35:05.973Z,99639.09
2023-11-07T13:37:33.439Z,99644.53
2023-11-07T13:40:02.177Z,99644.72
2023-11-07T13:42:29.851Z,99645.53
2023-11-07T13:44:57.420Z,99645.53
2023-11-07T13:47:25.543Z,99649.31
2023-11-07T13:49:52.991Z,99638.44
2023-11-07T13:52:20.410Z,99638.22
2023-11-07T13:54:48.082Z,99636.78
2023-11-07T13:57:16.877Z,99633.81
2023-11-07T13:59:44.412Z,99628.37
2023-11-07T14:02:12.135Z,99627.31
2023-11-07T14:04:40.035Z,99635.72
2023-11-07T14:07:08.712Z,99639.25
2023-11-07T14:09:37.743Z,99643.47
2023-11-07T14:12:05.752Z,99640.50
2023-11-07T14:14:33.835Z,99637.19
2023-11-07T14:17:01.281Z,99641.00
2023-11-07T14:19:29.402Z,99635.59
2023-11-07T14:21:56.934Z,99621.75
2023-11-07T14:24:24.389Z,99596.63
2023-11-07T14:26:55.190Z,99602.31
2023-11-07T14:29:38.469Z,99615.75
2023-11-07T14:32:13.898Z,99618.47
2023-11-07T14:34:42.643Z,99630.81
2023-11-07T14:37:10.313Z,99633.16
2023-11-07T14:39:38.080Z,99635.06
2023-11-07T14:42:07.654Z,99626.47
2023-11-07T14:44:35.846Z,99616.88
2023-11-07T14:47:04.512Z,99607.00
2023-11-07T14:49:32.232Z,99606.59
2023-11-07T14:52:04.458Z,99608.12
2023-11-07T14:54:32.262Z,99606.66
2023-11-07T14:57:04.163Z,99606.25
2023-11-07T14:59:34.146Z,99601.47
2023-11-07T15:02:04.059Z,99592.88
2023-11-07T15:04:33.012Z,99607.00
2023-11-07T15:07:01.273Z,99610.63
2023-11-07T15:09:28.873Z,99606.91
2023-11-07T15:11:59.335Z,99609.75
2023-11-07T15:14:27.200Z,99606.50
2023-11-07T15:16:54.699Z,99613.13
2023-11-07T15:19:22.276Z,99603.84
2023-11-07T15:21:50.035Z,99598.16
2023-11-07T15:24:19.013Z,99586.12
2023-11-07T15:26:46.968Z,99588.87
2023-11-07T15:29:14.670Z,99592.44
2023-11-07T15:31:42.102Z,99595.72
2023-11-07T15:34:10.319Z,99596.25
2023-11-07T15:36:38.371Z,99595.66
2023-11-07T15:39:13.496Z,99607.66
2023-11-07T15:41:41.814Z,99607.09
2023-11-07T15:44:09.586Z,99602.94
2023-11-07T15:46:44.611Z,99604.28
2023-11-07T15:49:12.542Z,99608.31
2023-11-07T15:51:40.192Z,99608.59
2023-11-07T15:54:07.867Z,99603.03
2023-11-07T15:56:35.717Z,99612.28
2023-11-07T15:59:05.475Z,99618.00
2023-11-07T16:01:33.803Z,99620.19
2023-11-07T16:04:01.652Z,99609.25
2023-11-07T16:06:29.268Z,99606.50
2023-11-07T16:08:57.101Z,99605.09
2023-11-07T16:11:24.926Z,99597.97
2023-11-07T16:13:52.686Z,99602.81
2023-11-07T16:16:20.165Z,99599.50
2023-11-07T16:18:53.470Z,99598.94
2023-11-07T16:21:21.857Z,99597.25
2023-11-07T16:23:49.969Z,99596.69
2023-11-07T16:26:17.657Z,99599.16
2023-11-07T16:28:45.159Z,99600.50
2023-11-07T16:31:13.503Z,99593.59
2023-11-07T16:33:41.188Z,99592.78
2023-11-07T16:36:08.788Z,99578.53
2023-11-07T16:38:36.805Z,99579.84
2023-11-07T16:41:04.802Z,99583.66
2023-11-07T16:43:32.323Z,99581.16
2023-11-07T16:46:00.506Z,99566.44
2023-11-07T16:48:27.994Z,99554.34
2023-11-07T16:50:55.895Z,99559.00
2023-11-07T16:53:23.682Z,99557.09
2023-11-07T16:55:56.856Z,99561.94
2023-11-07T16:58:25.922Z,99557.00
2023-11-07T17:00:53.707Z,99563.53
2023-11-07T17:03:21.476Z,99559.97
2023-11-07T17:05:49.587Z,99555.56
2023-11-07T17:08:17.836Z,99556.91
2023-11-07T17:10:48.041Z,99557.38
2023-11-07T17:13:15.701Z,99553.00
2023-11-07T17:15:43.312Z,99551.75
2023-11-07T17:18:11.606Z,99552.19
2023-11-07T17:20:46.652Z,99545.03
2023-11-07T17:23:16.010Z,99549.09
2023-11-07T17:25:45.647Z,99562.75
2023-11-07T17:28:13.829Z,99563.25
2023-11-07T17:30:41.914Z,99564.91
2023-11-07T17:33:10.185Z,99558.03
2023-11-07T17:35:42.454Z,99551.50
2023-11-07T17:38:11.219Z,99557.78
2023-11-07T17:40:39.544Z,99562.66
2023-11-07T17:43:08.708Z,99553.66
2023-11-07T17:45:36.927Z,99554.97
2023-11-07T17:48:05.465Z,99559.84
2023-11-07T17:50:35.044Z,99565.53
2023-11-07T17:53:04.108Z,99573.16
2023-11-07T17:55:32.625Z,99573.72
2023-11-07T17:58:01.572Z,99569.59
2023-11-07T18:00:30.669Z,99567.44
2023-11-07T18:03:00.388Z,99565.78
2023-11-07T18:05:29.039Z,99557.84
2023-11-07T18:07:57.539Z,99561.06
2023-11-07T18:10:27.287Z,99565.69
2023-11-07T18:12:55.713Z,99578.53
2023-11-07T18:15:24.638Z,99573.06
2023-11-07T18:17:53.299Z,99569.72
2023-11-07T18:20:22.199Z,99568.06
2023-11-07T18:22:52.775Z,99582.53
2023-11-07T18:25:24.484Z,99579.00
2023-11-07T18:27:52.550Z,99566.41
2023-11-07T18:30:21.792Z,99565.00
2023-11-07T18:32:52.734Z,99555.97
2023-11-07T18:35:21.370Z,99560.22
2023-11-07T18:37:52.051Z,99564.03
2023-11-07T18:40:22.939Z,99554.44
2023-11-07T18:42:51.015Z,99558.22
2023-11-07T18:45:20.102Z,99553.03
2023-11-07T18:47:49.463Z,99553.84
2023-11-07T18:50:19.830Z,99542.34
2023-11-07T18:52:51.228Z,99548.91
2023-11-07T18:55:20.403Z,99550.75
2023-11-07T18:57:49.897Z,99560.84
2023-11-07T19:00:23.037Z,99568.00
2023-11-07T19:02:53.037Z,99565.75
2023-11-07T19:05:26.461Z,99563.84
2023-11-07T19:07:58.003Z,99570.12
2023-11-07T19:10:27.073Z,99563.00
2023-11-07T19:12:56.384Z,99553.19
2023-11-07T19:15:25.622Z,99547.72
2023-11-07T19:17:58.897Z,99546.88
2023-11-07T19:20:28.604Z,99528.00
2023-11-07T19:22:58.207Z,99519.00
2023-11-07T19:25:32.088Z,99498.25
2023-11-07T19:28:02.458Z,99488.16
2023-11-07T19:30:31.936Z,99491.13
2023-11-07T19:33:01.483Z,99483.78
2023-11-07T19:35:32.040Z,99494.69
2023-11-07T19:38:06.995Z,99494.69
2023-11-07T19:40:36.489Z,99509.62
2023-11-07T19:43:05.655Z,99506.91
2023-11-07T19:45:35.168Z,99515.09
2023-11-07T19:48:04.183Z,99511.53
2023-11-07T19:50:32.784Z,99518.06
2023-11-07T19:53:09.148Z,99518.66
2023-11-07T19:55:42.192Z,99527.91
2023-11-07T19:58:11.952Z,99514.25
2023-11-07T20:00:40.854Z,99519.97
2023-11-07T20:03:10.615Z,99513.87
2023-11-07T20:05:42.858Z,99515.91
2023-11-07T20:08:15.006Z,99513.69
2023-11-07T20:10:44.931Z,99518.53
2023-11-07T20:13:14.248Z,99511.19
2023-11-07T20:15:43.318Z,99509.53
2023-11-07T20:18:13.354Z,99517.50
2023-11-07T20:20:46.701Z,99516.91
2023-11-07T20:23:16.605Z,99514.16
2023-11-07T20:25:49.557Z,99515.00
2023-11-07T20:28:20.512Z,99520.69
2023-11-07T20:30:49.376Z,99516.06
2023-11-07T20:33:18.380Z,99510.63
2023-11-07T20:35:48.716Z,99504.34
2023-11-07T20:38:20.225Z,99497.22
2023-11-07T20:40:50.531Z,99494.50
2023-11-07T20:43:19.612Z,99493.03
2023-11-07T20:46:06.554Z,99495.06
2023-11-07T20:48:39.668Z,99493.88
2023-11-07T20:51:10.211Z,99488.44
2023-11-07T20:53:39.902Z,99494.16
2023-11-07T20:56:09.065Z,99485.13
2023-11-07T20:58:37.797Z,99476.13
2023-11-07T21:01:10.149Z,99472.75
2023-11-07T21:03:38.729Z,99473.16
2023-11-07T21:06:07.266Z,99456.19
2023-11-07T21:08:36.259Z,99457.25
2023-11-07T21:11:05.304Z,99455.59
2023-11-07T21:13:33.166Z,99464.59
2023-11-07T21:16:00.660Z,99464.59
2023-11-07T21:18:30.396Z,99469.25
2023-11-07T21:20:58.428Z,99475.53
2023-11-07T21:23:25.872Z,99474.87
2023-11-07T21:25:53.333Z,99471.50
2023-11-07T21:28:21.046Z,99467.34
2023-11-07T21:30:48.586Z,99468.41
2023-11-07T21:33:16.634Z,99467.59
2023-11-07T21:35:44.533Z,99471.16
2023-11-07T21:38:12.367Z,99471.97
2023-11-07T21:40:40.876Z,99468.41
2023-11-07T21:43:09.581Z,99471.97
2023-11-07T21:45:37.174Z,99469.25
2023-11-07T21:48:08.533Z,99467.59
2023-11-07T21:50:37.049Z,99471.97
2023-11-07T21:53:04.520Z,99474.69
2023-11-07T21:55:32.074Z,99463.78
2023-11-07T21:58:00.691Z,99457.50
2023-11-07T22:00:28.796Z,99462.97
2023-11-07T22:02:56.785Z,99464.88
2023-11-07T22:05:24.313Z,99455.59
2023-11-07T22:07:52.830Z,99465.69
2023-11-07T22:10:20.555Z,99464.59
2023-11-07T22:12:48.443Z,99459.41
2023-11-07T22:15:15.963Z,99456.69
2023-11-07T22:17:44.067Z,99457.75
2023-11-07T22:20:14.648Z,99457.75
2023-11-07T22:22:43.884Z,99462.13
2023-11-07T22:25:11.978Z,99456.69
2023-11-07T22:27:39.846Z,99453.13
2023-11-07T22:30:10.876Z,99444.94
2023-11-07T22:32:42.088Z,99452.31
2023-11-07T22:35:10.093Z,99446.84
2023-11-07T22:37:38.774Z,99444.13
2023-11-07T22:40:08.179Z,99447.88
2023-11-07T22:42:38.260Z,99448.75
2023-11-07T22:45:07.932Z,99446.84
2023-11-07T22:47:35.386Z,99445.16
2023-11-07T22:50:02.835Z,99435.09
2023-11-07T22:52:30.575Z,99436.16
2023-11-07T22:54:58.028Z,99433.44
2023-11-07T22:57:25.915Z,99437.31
2023-11-07T22:59:53.824Z,99426.91
2023-11-07T23:02:21.589Z,99426.75
2023-11-07T23:04:49.140Z,99430.06
2023-11-07T23:07:17.820Z,99427.09
2023-11-07T23:09:50.413Z,99422.47
2023-11-07T23:12:18.382Z,99426.03
2023-11-07T23:14:46.758Z,99422.22
2023-11-07T23:17:14.820Z,99425.94
2023-11-07T23:19:42.881Z,99431.88
2023-11-07T23:22:13.487Z,99424.75
2023-11-07T23:24:43.466Z,99416.84
2023-11-07T23:27:15.261Z,99426.91
2023-11-07T23:29:45.263Z,99429.87
2023-11-07T23:32:13.474Z,99433.69
2023-11-07T23:34:41.464Z,99432.03
2023-11-07T23:37:09.561Z,99432.84
2023-11-07T23:39:37.411Z,99432.84
2023-11-07T23:42:05.471Z,99432.03
2023-11-07T23:44:32.976Z,99421.13
2023-11-07T23:47:00.711Z,99420.28
2023-11-07T23:49:28.134Z,99424.91
2023-11-07T23:51:55.763Z,99422.19
2023-11-07T23:54:24.655Z,99429.31
2023-11-07T23:56:52.103Z,99427.66
2023-11-07T23:59:19.568Z,99422.41
